sensor_id;sensor_type;location;lat;lon;timestamp;P1;durP1;ratioP1;P2;durP2;ratioP2
71637;SDS011;59485;43.542;-5.676;2022-12-07T00:03:35;15.77;;;9.73;;
71637;SDS011;59485;43.542;-5.676;2022-12-07T00:06:02;17.55;;;9.60;;
71637;SDS011;59485;43.542;-5.676;2022-12-07T00:08:29;16.92;;;9.68;;
71637;SDS011;59485;43.542;-5.676;2022-12-07T00:11:00;22.30;;;12.55;;
71637;SDS011;59485;43.542;-5.676;2022-12-07T00:13:39;20.27;;;11.60;;
71637;SDS011;59485;43.542;-5.676;2022-12-07T00:16:06;21.93;;;11.63;;
71637;SDS011;59485;43.542;-5.676;2022-12-07T00:18:35;19.20;;;11.30;;
71637;SDS011;59485;43.542;-5.676;2022-12-07T00:23:47;20.67;;;11.18;;
71637;SDS011;59485;43.542;-5.676;2022-12-07T00:28:51;24.73;;;17.87;;
71637;SDS011;59485;43.542;-5.676;2022-12-07T00:31:19;27.67;;;19.23;;
71637;SDS011;59485;43.542;-5.676;2022-12-07T00:33:47;26.85;;;17.98;;
71637;SDS011;59485;43.542;-5.676;2022-12-07T00:36:14;24.23;;;16.85;;
71637;SDS011;59485;43.542;-5.676;2022-12-07T00:38:43;25.00;;;17.13;;
71637;SDS011;59485;43.542;-5.676;2022-12-07T00:41:10;24.13;;;16.13;;
71637;SDS011;59485;43.542;-5.676;2022-12-07T00:43:38;26.63;;;18.35;;
71637;SDS011;59485;43.542;-5.676;2022-12-07T00:46:04;31.10;;;23.42;;
71637;SDS011;59485;43.542;-5.676;2022-12-07T00:48:30;33.10;;;23.70;;
71637;SDS011;59485;43.542;-5.676;2022-12-07T00:50:55;31.88;;;24.92;;
71637;SDS011;59485;43.542;-5.676;2022-12-07T00:53:21;29.67;;;22.43;;
71637;SDS011;59485;43.542;-5.676;2022-12-07T00:55:47;23.38;;;17.10;;
71637;SDS011;59485;43.542;-5.676;2022-12-07T00:58:13;21.65;;;14.18;;
71637;SDS011;59485;43.542;-5.676;2022-12-07T01:00:40;19.17;;;12.60;;
71637;SDS011;59485;43.542;-5.676;2022-12-07T01:03:08;17.33;;;10.88;;
71637;SDS011;59485;43.542;-5.676;2022-12-07T01:05:34;17.17;;;9.75;;
71637;SDS011;59485;43.542;-5.676;2022-12-07T01:08:00;16.10;;;10.40;;
71637;SDS011;59485;43.542;-5.676;2022-12-07T01:10:26;15.65;;;10.80;;
71637;SDS011;59485;43.542;-5.676;2022-12-07T01:12:52;17.77;;;10.95;;
71637;SDS011;59485;43.542;-5.676;2022-12-07T01:15:18;13.60;;;8.57;;
71637;SDS011;59485;43.542;-5.676;2022-12-07T01:17:44;15.13;;;9.68;;
71637;SDS011;59485;43.542;-5.676;2022-12-07T01:20:09;15.23;;;9.93;;
71637;SDS011;59485;43.542;-5.676;2022-12-07T01:22:42;15.57;;;9.48;;
71637;SDS011;59485;43.542;-5.676;2022-12-07T01:25:09;15.52;;;9.15;;
71637;SDS011;59485;43.542;-5.676;2022-12-07T01:27:36;13.45;;;9.57;;
71637;SDS011;59485;43.542;-5.676;2022-12-07T01:30:03;17.88;;;8.88;;
71637;SDS011;59485;43.542;-5.676;2022-12-07T01:32:31;14.97;;;9.80;;
71637;SDS011;59485;43.542;-5.676;2022-12-07T01:34:57;16.02;;;9.10;;
71637;SDS011;59485;43.542;-5.676;2022-12-07T01:37:22;14.70;;;9.50;;
71637;SDS011;59485;43.542;-5.676;2022-12-07T01:39:48;14.87;;;9.27;;
71637;SDS011;59485;43.542;-5.676;2022-12-07T01:42:14;21.33;;;13.73;;
71637;SDS011;59485;43.542;-5.676;2022-12-07T01:47:56;21.33;;;12.70;;
71637;SDS011;59485;43.542;-5.676;2022-12-07T01:50:24;21.20;;;13.80;;
71637;SDS011;59485;43.542;-5.676;2022-12-07T01:52:53;27.00;;;16.67;;
71637;SDS011;59485;43.542;-5.676;2022-12-07T01:55:21;25.40;;;15.70;;
71637;SDS011;59485;43.542;-5.676;2022-12-07T01:57:48;22.10;;;17.25;;
71637;SDS011;59485;43.542;-5.676;2022-12-07T02:00:16;23.23;;;16.43;;
71637;SDS011;59485;43.542;-5.676;2022-12-07T02:02:43;23.98;;;18.00;;
71637;SDS011;59485;43.542;-5.676;2022-12-07T02:05:14;24.30;;;18.65;;
71637;SDS011;59485;43.542;-5.676;2022-12-07T02:07:40;32.72;;;23.15;;
71637;SDS011;59485;43.542;-5.676;2022-12-07T02:12:37;31.00;;;23.20;;
71637;SDS011;59485;43.542;-5.676;2022-12-07T02:15:03;30.67;;;23.37;;
71637;SDS011;59485;43.542;-5.676;2022-12-07T02:17:37;31.83;;;23.83;;
71637;SDS011;59485;43.542;-5.676;2022-12-07T02:29:00;24.23;;;16.83;;
71637;SDS011;59485;43.542;-5.676;2022-12-07T02:31:33;25.45;;;15.70;;
71637;SDS011;59485;43.542;-5.676;2022-12-07T02:34:09;21.83;;;14.40;;
71637;SDS011;59485;43.542;-5.676;2022-12-07T02:36:45;23.60;;;14.63;;
71637;SDS011;59485;43.542;-5.676;2022-12-07T02:42:23;20.80;;;13.23;;
71637;SDS011;59485;43.542;-5.676;2022-12-07T02:44:55;21.45;;;13.55;;
71637;SDS011;59485;43.542;-5.676;2022-12-07T02:47:21;19.00;;;12.55;;
71637;SDS011;59485;43.542;-5.676;2022-12-07T02:49:50;22.20;;;14.15;;
71637;SDS011;59485;43.542;-5.676;2022-12-07T02:52:16;19.38;;;13.02;;
71637;SDS011;59485;43.542;-5.676;2022-12-07T02:54:42;19.03;;;12.93;;
71637;SDS011;59485;43.542;-5.676;2022-12-07T02:57:13;21.20;;;13.40;;
71637;SDS011;59485;43.542;-5.676;2022-12-07T02:59:57;20.42;;;13.43;;
71637;SDS011;59485;43.542;-5.676;2022-12-07T03:02:31;22.17;;;14.30;;
71637;SDS011;59485;43.542;-5.676;2022-12-07T03:05:32;24.98;;;14.65;;
71637;SDS011;59485;43.542;-5.676;2022-12-07T03:08:12;23.97;;;14.77;;
71637;SDS011;59485;43.542;-5.676;2022-12-07T03:10:58;26.42;;;16.60;;
71637;SDS011;59485;43.542;-5.676;2022-12-07T03:16:38;26.75;;;16.23;;
71637;SDS011;59485;43.542;-5.676;2022-12-07T03:19:10;24.10;;;16.25;;
71637;SDS011;59485;43.542;-5.676;2022-12-07T03:21:44;21.83;;;15.47;;
71637;SDS011;59485;43.542;-5.676;2022-12-07T03:24:17;23.98;;;15.95;;
71637;SDS011;59485;43.542;-5.676;2022-12-07T03:26:47;25.77;;;16.92;;
71637;SDS011;59485;43.542;-5.676;2022-12-07T03:29:41;25.05;;;15.90;;
71637;SDS011;59485;43.542;-5.676;2022-12-07T03:32:30;24.70;;;17.50;;
71637;SDS011;59485;43.542;-5.676;2022-12-07T03:35:05;20.77;;;15.97;;
71637;SDS011;59485;43.542;-5.676;2022-12-07T03:37:45;24.45;;;16.70;;
71637;SDS011;59485;43.542;-5.676;2022-12-07T03:40:29;26.40;;;17.33;;
71637;SDS011;59485;43.542;-5.676;2022-12-07T03:43:00;26.35;;;17.67;;
71637;SDS011;59485;43.542;-5.676;2022-12-07T03:45:44;25.98;;;19.98;;
71637;SDS011;59485;43.542;-5.676;2022-12-07T03:48:24;30.57;;;20.03;;
71637;SDS011;59485;43.542;-5.676;2022-12-07T03:53:45;32.15;;;21.88;;
71637;SDS011;59485;43.542;-5.676;2022-12-07T03:56:16;28.20;;;18.48;;
71637;SDS011;59485;43.542;-5.676;2022-12-07T03:58:42;23.60;;;16.63;;
71637;SDS011;59485;43.542;-5.676;2022-12-07T04:01:10;22.50;;;15.13;;
71637;SDS011;59485;43.542;-5.676;2022-12-07T04:03:36;26.30;;;15.48;;
71637;SDS011;59485;43.542;-5.676;2022-12-07T04:06:02;24.35;;;15.73;;
71637;SDS011;59485;43.542;-5.676;2022-12-07T04:08:27;22.00;;;14.73;;
71637;SDS011;59485;43.542;-5.676;2022-12-07T04:10:53;22.05;;;15.10;;
71637;SDS011;59485;43.542;-5.676;2022-12-07T04:13:18;26.63;;;17.40;;
71637;SDS011;59485;43.542;-5.676;2022-12-07T04:15:44;23.70;;;17.33;;
71637;SDS011;59485;43.542;-5.676;2022-12-07T04:18:10;24.70;;;16.65;;
71637;SDS011;59485;43.542;-5.676;2022-12-07T04:20:35;25.57;;;15.53;;
71637;SDS011;59485;43.542;-5.676;2022-12-07T04:23:01;21.40;;;14.80;;
71637;SDS011;59485;43.542;-5.676;2022-12-07T04:25:26;20.43;;;12.00;;
71637;SDS011;59485;43.542;-5.676;2022-12-07T04:27:52;22.00;;;12.40;;
71637;SDS011;59485;43.542;-5.676;2022-12-07T04:30:19;18.77;;;11.00;;
71637;SDS011;59485;43.542;-5.676;2022-12-07T04:32:44;20.17;;;10.68;;
71637;SDS011;59485;43.542;-5.676;2022-12-07T04:35:10;19.97;;;10.30;;
71637;SDS011;59485;43.542;-5.676;2022-12-07T04:37:35;19.33;;;11.37;;
71637;SDS011;59485;43.542;-5.676;2022-12-07T04:40:04;18.77;;;11.57;;
71637;SDS011;59485;43.542;-5.676;2022-12-07T04:42:30;17.10;;;11.73;;
71637;SDS011;59485;43.542;-5.676;2022-12-07T04:44:56;18.90;;;11.40;;
71637;SDS011;59485;43.542;-5.676;2022-12-07T04:47:21;19.40;;;10.40;;
71637;SDS011;59485;43.542;-5.676;2022-12-07T04:49:47;18.80;;;10.47;;
71637;SDS011;59485;43.542;-5.676;2022-12-07T04:52:12;16.33;;;10.03;;
71637;SDS011;59485;43.542;-5.676;2022-12-07T04:54:38;18.73;;;12.27;;
71637;SDS011;59485;43.542;-5.676;2022-12-07T04:57:03;20.63;;;12.37;;
71637;SDS011;59485;43.542;-5.676;2022-12-07T04:59:29;18.47;;;11.87;;
71637;SDS011;59485;43.542;-5.676;2022-12-07T05:01:54;17.85;;;11.77;;
71637;SDS011;59485;43.542;-5.676;2022-12-07T05:04:20;20.07;;;12.03;;
71637;SDS011;59485;43.542;-5.676;2022-12-07T05:06:46;22.27;;;13.77;;
71637;SDS011;59485;43.542;-5.676;2022-12-07T05:09:11;22.73;;;12.80;;
71637;SDS011;59485;43.542;-5.676;2022-12-07T05:11:37;23.20;;;14.57;;
71637;SDS011;59485;43.542;-5.676;2022-12-07T05:14:03;22.13;;;16.85;;
71637;SDS011;59485;43.542;-5.676;2022-12-07T05:16:50;24.55;;;17.58;;
71637;SDS011;59485;43.542;-5.676;2022-12-07T05:19:16;26.57;;;17.40;;
71637;SDS011;59485;43.542;-5.676;2022-12-07T05:21:43;24.50;;;17.27;;
71637;SDS011;59485;43.542;-5.676;2022-12-07T05:24:10;22.95;;;18.70;;
71637;SDS011;59485;43.542;-5.676;2022-12-07T05:26:37;29.10;;;19.80;;
71637;SDS011;59485;43.542;-5.676;2022-12-07T05:29:03;24.90;;;17.98;;
71637;SDS011;59485;43.542;-5.676;2022-12-07T05:31:29;21.50;;;15.77;;
71637;SDS011;59485;43.542;-5.676;2022-12-07T05:33:55;24.40;;;16.80;;
71637;SDS011;59485;43.542;-5.676;2022-12-07T05:36:21;22.55;;;15.75;;
71637;SDS011;59485;43.542;-5.676;2022-12-07T05:38:47;24.42;;;15.82;;
71637;SDS011;59485;43.542;-5.676;2022-12-07T05:41:14;25.87;;;15.37;;
71637;SDS011;59485;43.542;-5.676;2022-12-07T05:44:00;22.75;;;15.65;;
71637;SDS011;59485;43.542;-5.676;2022-12-07T05:46:26;24.70;;;13.95;;
71637;SDS011;59485;43.542;-5.676;2022-12-07T05:48:51;23.83;;;13.93;;
71637;SDS011;59485;43.542;-5.676;2022-12-07T05:51:17;22.93;;;13.40;;
71637;SDS011;59485;43.542;-5.676;2022-12-07T05:53:46;21.77;;;14.23;;
71637;SDS011;59485;43.542;-5.676;2022-12-07T05:56:11;23.23;;;14.10;;
71637;SDS011;59485;43.542;-5.676;2022-12-07T05:58:37;25.07;;;14.53;;
71637;SDS011;59485;43.542;-5.676;2022-12-07T06:01:21;23.00;;;14.35;;
71637;SDS011;59485;43.542;-5.676;2022-12-07T06:03:46;29.73;;;16.67;;
71637;SDS011;59485;43.542;-5.676;2022-12-07T06:06:12;27.08;;;16.77;;
71637;SDS011;59485;43.542;-5.676;2022-12-07T06:08:38;23.83;;;14.97;;
71637;SDS011;59485;43.542;-5.676;2022-12-07T06:11:03;20.47;;;13.97;;
71637;SDS011;59485;43.542;-5.676;2022-12-07T06:13:47;21.30;;;12.93;;
71637;SDS011;59485;43.542;-5.676;2022-12-07T06:16:13;24.75;;;14.13;;
71637;SDS011;59485;43.542;-5.676;2022-12-07T06:18:38;24.67;;;12.87;;
71637;SDS011;59485;43.542;-5.676;2022-12-07T06:21:04;20.93;;;12.97;;
71637;SDS011;59485;43.542;-5.676;2022-12-07T06:23:30;19.50;;;12.13;;
71637;SDS011;59485;43.542;-5.676;2022-12-07T06:25:55;19.10;;;10.93;;
71637;SDS011;59485;43.542;-5.676;2022-12-07T06:28:21;20.67;;;11.77;;
71637;SDS011;59485;43.542;-5.676;2022-12-07T06:30:46;18.05;;;12.65;;
71637;SDS011;59485;43.542;-5.676;2022-12-07T06:33:12;16.67;;;11.27;;
71637;SDS011;59485;43.542;-5.676;2022-12-07T06:35:37;18.63;;;11.33;;
71637;SDS011;59485;43.542;-5.676;2022-12-07T06:38:03;21.75;;;14.00;;
71637;SDS011;59485;43.542;-5.676;2022-12-07T06:40:28;24.53;;;16.87;;
71637;SDS011;59485;43.542;-5.676;2022-12-07T06:42:54;21.07;;;16.53;;
71637;SDS011;59485;43.542;-5.676;2022-12-07T06:45:20;21.42;;;16.05;;
71637;SDS011;59485;43.542;-5.676;2022-12-07T06:47:46;22.83;;;16.97;;
71637;SDS011;59485;43.542;-5.676;2022-12-07T06:50:11;23.45;;;17.85;;
71637;SDS011;59485;43.542;-5.676;2022-12-07T06:52:37;27.53;;;20.20;;
71637;SDS011;59485;43.542;-5.676;2022-12-07T06:55:02;27.85;;;23.02;;
71637;SDS011;59485;43.542;-5.676;2022-12-07T06:57:28;29.83;;;21.07;;
71637;SDS011;59485;43.542;-5.676;2022-12-07T06:59:54;27.17;;;21.30;;
71637;SDS011;59485;43.542;-5.676;2022-12-07T07:02:19;24.73;;;18.40;;
71637;SDS011;59485;43.542;-5.676;2022-12-07T07:04:45;23.83;;;17.63;;
71637;SDS011;59485;43.542;-5.676;2022-12-07T07:07:10;21.73;;;15.68;;
71637;SDS011;59485;43.542;-5.676;2022-12-07T07:09:36;24.13;;;16.60;;
71637;SDS011;59485;43.542;-5.676;2022-12-07T07:12:01;25.10;;;14.93;;
71637;SDS011;59485;43.542;-5.676;2022-12-07T07:14:27;22.42;;;13.65;;
71637;SDS011;59485;43.542;-5.676;2022-12-07T07:16:52;21.97;;;13.47;;
71637;SDS011;59485;43.542;-5.676;2022-12-07T07:19:18;21.77;;;13.63;;
71637;SDS011;59485;43.542;-5.676;2022-12-07T07:21:43;24.02;;;13.98;;
71637;SDS011;59485;43.542;-5.676;2022-12-07T07:24:09;20.57;;;13.83;;
71637;SDS011;59485;43.542;-5.676;2022-12-07T07:26:35;25.73;;;14.27;;
71637;SDS011;59485;43.542;-5.676;2022-12-07T07:29:00;21.27;;;13.35;;
71637;SDS011;59485;43.542;-5.676;2022-12-07T07:31:26;18.80;;;12.30;;
71637;SDS011;59485;43.542;-5.676;2022-12-07T07:33:51;21.40;;;11.87;;
71637;SDS011;59485;43.542;-5.676;2022-12-07T07:36:17;21.93;;;12.70;;
71637;SDS011;59485;43.542;-5.676;2022-12-07T07:38:43;22.40;;;12.07;;
71637;SDS011;59485;43.542;-5.676;2022-12-07T07:41:08;21.60;;;13.00;;
71637;SDS011;59485;43.542;-5.676;2022-12-07T07:43:34;23.67;;;13.10;;
71637;SDS011;59485;43.542;-5.676;2022-12-07T07:45:59;36.93;;;14.97;;
71637;SDS011;59485;43.542;-5.676;2022-12-07T07:48:25;46.08;;;17.17;;
71637;SDS011;59485;43.542;-5.676;2022-12-07T07:50:50;43.93;;;16.03;;
71637;SDS011;59485;43.542;-5.676;2022-12-07T07:53:16;42.17;;;16.10;;
71637;SDS011;59485;43.542;-5.676;2022-12-07T07:55:49;56.20;;;17.10;;
71637;SDS011;59485;43.542;-5.676;2022-12-07T07:58:16;48.70;;;14.00;;
71637;SDS011;59485;43.542;-5.676;2022-12-07T08:00:41;51.87;;;17.13;;
71637;SDS011;59485;43.542;-5.676;2022-12-07T08:03:07;44.10;;;16.47;;
71637;SDS011;59485;43.542;-5.676;2022-12-07T08:05:32;44.75;;;15.13;;
71637;SDS011;59485;43.542;-5.676;2022-12-07T08:07:58;50.20;;;15.00;;
71637;SDS011;59485;43.542;-5.676;2022-12-07T08:10:23;57.37;;;16.30;;
71637;SDS011;59485;43.542;-5.676;2022-12-07T08:12:49;50.58;;;13.77;;
71637;SDS011;59485;43.542;-5.676;2022-12-07T08:15:36;50.65;;;14.15;;
71637;SDS011;59485;43.542;-5.676;2022-12-07T08:18:02;45.75;;;14.57;;
71637;SDS011;59485;43.542;-5.676;2022-12-07T08:20:29;41.30;;;13.13;;
71637;SDS011;59485;43.542;-5.676;2022-12-07T08:22:56;38.97;;;13.27;;
71637;SDS011;59485;43.542;-5.676;2022-12-07T08:25:22;36.60;;;13.27;;
71637;SDS011;59485;43.542;-5.676;2022-12-07T08:27:48;36.08;;;11.70;;
71637;SDS011;59485;43.542;-5.676;2022-12-07T08:30:14;29.23;;;10.68;;
71637;SDS011;59485;43.542;-5.676;2022-12-07T08:32:40;31.77;;;10.80;;
71637;SDS011;59485;43.542;-5.676;2022-12-07T08:35:05;27.25;;;9.52;;
71637;SDS011;59485;43.542;-5.676;2022-12-07T08:37:31;21.17;;;8.73;;
71637;SDS011;59485;43.542;-5.676;2022-12-07T08:39:57;21.60;;;8.30;;
71637;SDS011;59485;43.542;-5.676;2022-12-07T08:42:23;21.43;;;9.07;;
71637;SDS011;59485;43.542;-5.676;2022-12-07T08:44:52;26.98;;;9.30;;
71637;SDS011;59485;43.542;-5.676;2022-12-07T08:47:18;25.85;;;9.80;;
71637;SDS011;59485;43.542;-5.676;2022-12-07T08:49:45;19.02;;;8.45;;
71637;SDS011;59485;43.542;-5.676;2022-12-07T08:52:13;20.58;;;7.45;;
71637;SDS011;59485;43.542;-5.676;2022-12-07T08:54:39;20.20;;;8.90;;
71637;SDS011;59485;43.542;-5.676;2022-12-07T08:57:06;22.70;;;9.20;;
71637;SDS011;59485;43.542;-5.676;2022-12-07T08:59:33;18.38;;;8.50;;
71637;SDS011;59485;43.542;-5.676;2022-12-07T09:02:00;18.87;;;8.47;;
71637;SDS011;59485;43.542;-5.676;2022-12-07T09:04:25;21.65;;;8.55;;
71637;SDS011;59485;43.542;-5.676;2022-12-07T09:06:51;19.07;;;8.17;;
71637;SDS011;59485;43.542;-5.676;2022-12-07T09:09:17;16.95;;;8.05;;
71637;SDS011;59485;43.542;-5.676;2022-12-07T09:11:42;19.23;;;9.20;;
71637;SDS011;59485;43.542;-5.676;2022-12-07T09:14:10;17.20;;;8.52;;
71637;SDS011;59485;43.542;-5.676;2022-12-07T09:16:35;16.02;;;7.57;;
71637;SDS011;59485;43.542;-5.676;2022-12-07T09:19:01;19.97;;;8.37;;
71637;SDS011;59485;43.542;-5.676;2022-12-07T09:21:26;19.00;;;8.07;;
71637;SDS011;59485;43.542;-5.676;2022-12-07T09:23:52;23.10;;;9.50;;
71637;SDS011;59485;43.542;-5.676;2022-12-07T09:26:17;26.37;;;11.50;;
71637;SDS011;59485;43.542;-5.676;2022-12-07T09:28:43;19.03;;;10.00;;
71637;SDS011;59485;43.542;-5.676;2022-12-07T09:31:08;21.67;;;10.23;;
71637;SDS011;59485;43.542;-5.676;2022-12-07T09:33:34;17.10;;;9.40;;
71637;SDS011;59485;43.542;-5.676;2022-12-07T09:35:59;27.10;;;12.90;;
71637;SDS011;59485;43.542;-5.676;2022-12-07T09:38:25;23.00;;;11.13;;
71637;SDS011;59485;43.542;-5.676;2022-12-07T09:40:51;21.77;;;10.67;;
71637;SDS011;59485;43.542;-5.676;2022-12-07T09:43:20;22.10;;;10.80;;
71637;SDS011;59485;43.542;-5.676;2022-12-07T09:45:50;25.10;;;11.55;;
71637;SDS011;59485;43.542;-5.676;2022-12-07T09:48:39;22.75;;;11.82;;
71637;SDS011;59485;43.542;-5.676;2022-12-07T09:53:43;24.90;;;12.68;;
71637;SDS011;59485;43.542;-5.676;2022-12-07T09:56:13;23.33;;;14.10;;
71637;SDS011;59485;43.542;-5.676;2022-12-07T09:58:40;30.08;;;12.88;;
71637;SDS011;59485;43.542;-5.676;2022-12-07T10:03:32;22.27;;;12.80;;
71637;SDS011;59485;43.542;-5.676;2022-12-07T10:05:59;24.10;;;13.10;;
71637;SDS011;59485;43.542;-5.676;2022-12-07T10:08:25;23.42;;;13.38;;
71637;SDS011;59485;43.542;-5.676;2022-12-07T10:10:52;20.03;;;12.57;;
71637;SDS011;59485;43.542;-5.676;2022-12-07T10:13:20;22.15;;;12.65;;
71637;SDS011;59485;43.542;-5.676;2022-12-07T10:15:51;21.20;;;13.60;;
71637;SDS011;59485;43.542;-5.676;2022-12-07T10:21:14;22.75;;;11.73;;
71637;SDS011;59485;43.542;-5.676;2022-12-07T10:28:53;22.15;;;11.77;;
71637;SDS011;59485;43.542;-5.676;2022-12-07T10:31:21;25.03;;;12.20;;
71637;SDS011;59485;43.542;-5.676;2022-12-07T10:33:49;22.42;;;12.27;;
71637;SDS011;59485;43.542;-5.676;2022-12-07T10:36:17;24.70;;;12.57;;
71637;SDS011;59485;43.542;-5.676;2022-12-07T10:39:02;27.08;;;12.60;;
71637;SDS011;59485;43.542;-5.676;2022-12-07T10:41:28;26.00;;;14.23;;
71637;SDS011;59485;43.542;-5.676;2022-12-07T10:43:55;25.33;;;14.63;;
71637;SDS011;59485;43.542;-5.676;2022-12-07T10:46:36;25.45;;;14.48;;
71637;SDS011;59485;43.542;-5.676;2022-12-07T10:49:35;25.38;;;14.95;;
71637;SDS011;59485;43.542;-5.676;2022-12-07T10:52:18;23.48;;;14.50;;
71637;SDS011;59485;43.542;-5.676;2022-12-07T11:00:31;20.70;;;12.65;;
71637;SDS011;59485;43.542;-5.676;2022-12-07T11:08:55;21.50;;;11.35;;
71637;SDS011;59485;43.542;-5.676;2022-12-07T11:17:02;16.95;;;10.43;;
71637;SDS011;59485;43.542;-5.676;2022-12-07T11:30:00;21.02;;;10.95;;
71637;SDS011;59485;43.542;-5.676;2022-12-07T11:32:44;19.13;;;9.38;;
71637;SDS011;59485;43.542;-5.676;2022-12-07T11:37:39;15.10;;;9.20;;
71637;SDS011;59485;43.542;-5.676;2022-12-07T11:46:02;15.68;;;7.85;;
71637;SDS011;59485;43.542;-5.676;2022-12-07T11:51:20;18.97;;;8.70;;
71637;SDS011;59485;43.542;-5.676;2022-12-07T11:56:22;15.98;;;6.72;;
71637;SDS011;59485;43.542;-5.676;2022-12-07T12:01:53;13.77;;;5.75;;
71637;SDS011;59485;43.542;-5.676;2022-12-07T12:06:57;14.65;;;5.95;;
71637;SDS011;59485;43.542;-5.676;2022-12-07T12:09:35;15.30;;;7.38;;
71637;SDS011;59485;43.542;-5.676;2022-12-07T12:15:03;19.57;;;9.23;;
71637;SDS011;59485;43.542;-5.676;2022-12-07T12:20:35;20.35;;;9.45;;
71637;SDS011;59485;43.542;-5.676;2022-12-07T12:23:20;17.00;;;9.27;;
71637;SDS011;59485;43.542;-5.676;2022-12-07T12:25:50;19.73;;;9.95;;
71637;SDS011;59485;43.542;-5.676;2022-12-07T12:28:21;15.07;;;7.10;;
71637;SDS011;59485;43.542;-5.676;2022-12-07T12:33:46;9.88;;;4.10;;
71637;SDS011;59485;43.542;-5.676;2022-12-07T12:46:59;23.05;;;12.68;;
71637;SDS011;59485;43.542;-5.676;2022-12-07T12:56:00;21.23;;;8.68;;
71637;SDS011;59485;43.542;-5.676;2022-12-07T12:58:34;14.13;;;6.03;;
71637;SDS011;59485;43.542;-5.676;2022-12-07T13:21:41;14.93;;;5.05;;
71637;SDS011;59485;43.542;-5.676;2022-12-07T13:31:39;13.10;;;5.80;;
71637;SDS011;59485;43.542;-5.676;2022-12-07T13:36:59;14.50;;;5.03;;
71637;SDS011;59485;43.542;-5.676;2022-12-07T13:39:27;10.77;;;4.63;;
71637;SDS011;59485;43.542;-5.676;2022-12-07T13:41:54;19.05;;;5.88;;
71637;SDS011;59485;43.542;-5.676;2022-12-07T13:44:27;23.10;;;6.93;;
71637;SDS011;59485;43.542;-5.676;2022-12-07T13:46:55;18.23;;;7.63;;
71637;SDS011;59485;43.542;-5.676;2022-12-07T13:49:36;14.57;;;7.00;;
71637;SDS011;59485;43.542;-5.676;2022-12-07T13:52:13;14.88;;;5.75;;
71637;SDS011;59485;43.542;-5.676;2022-12-07T13:54:49;16.25;;;6.03;;
71637;SDS011;59485;43.542;-5.676;2022-12-07T13:57:38;23.73;;;12.40;;
71637;SDS011;59485;43.542;-5.676;2022-12-07T14:00:05;31.83;;;13.93;;
71637;SDS011;59485;43.542;-5.676;2022-12-07T14:02:53;20.92;;;8.05;;
71637;SDS011;59485;43.542;-5.676;2022-12-07T14:05:34;13.55;;;4.75;;
71637;SDS011;59485;43.542;-5.676;2022-12-07T14:10:37;18.47;;;5.40;;
71637;SDS011;59485;43.542;-5.676;2022-12-07T14:16:17;16.05;;;6.63;;
71637;SDS011;59485;43.542;-5.676;2022-12-07T14:18:53;19.90;;;7.30;;
71637;SDS011;59485;43.542;-5.676;2022-12-07T14:21:20;15.00;;;4.90;;
71637;SDS011;59485;43.542;-5.676;2022-12-07T14:26:49;20.33;;;6.93;;
71637;SDS011;59485;43.542;-5.676;2022-12-07T14:29:19;19.30;;;8.63;;
71637;SDS011;59485;43.542;-5.676;2022-12-07T14:31:48;34.22;;;14.57;;
71637;SDS011;59485;43.542;-5.676;2022-12-07T14:34:14;22.42;;;8.20;;
71637;SDS011;59485;43.542;-5.676;2022-12-07T14:36:40;23.07;;;7.50;;
71637;SDS011;59485;43.542;-5.676;2022-12-07T14:39:05;16.43;;;7.87;;
71637;SDS011;59485;43.542;-5.676;2022-12-07T14:41:31;18.67;;;8.50;;
71637;SDS011;59485;43.542;-5.676;2022-12-07T14:44:14;29.40;;;9.23;;
71637;SDS011;59485;43.542;-5.676;2022-12-07T14:46:40;15.38;;;6.68;;
71637;SDS011;59485;43.542;-5.676;2022-12-07T14:49:05;19.60;;;6.13;;
71637;SDS011;59485;43.542;-5.676;2022-12-07T14:51:31;12.97;;;4.67;;
71637;SDS011;59485;43.542;-5.676;2022-12-07T14:53:58;22.83;;;5.43;;
71637;SDS011;59485;43.542;-5.676;2022-12-07T14:56:24;18.13;;;8.68;;
71637;SDS011;59485;43.542;-5.676;2022-12-07T14:58:50;19.13;;;7.83;;
71637;SDS011;59485;43.542;-5.676;2022-12-07T15:01:16;14.93;;;7.13;;
71637;SDS011;59485;43.542;-5.676;2022-12-07T15:03:41;16.83;;;5.77;;
71637;SDS011;59485;43.542;-5.676;2022-12-07T15:06:07;13.38;;;5.85;;
71637;SDS011;59485;43.542;-5.676;2022-12-07T15:08:33;17.43;;;5.20;;
71637;SDS011;59485;43.542;-5.676;2022-12-07T15:10:58;14.70;;;4.95;;
71637;SDS011;59485;43.542;-5.676;2022-12-07T15:13:24;16.77;;;6.97;;
71637;SDS011;59485;43.542;-5.676;2022-12-07T15:16:19;15.75;;;6.10;;
71637;SDS011;59485;43.542;-5.676;2022-12-07T15:18:46;14.15;;;5.18;;
71637;SDS011;59485;43.542;-5.676;2022-12-07T15:21:15;16.23;;;6.00;;
71637;SDS011;59485;43.542;-5.676;2022-12-07T15:23:41;17.27;;;6.45;;
71637;SDS011;59485;43.542;-5.676;2022-12-07T15:26:07;17.70;;;7.28;;
71637;SDS011;59485;43.542;-5.676;2022-12-07T15:28:34;16.40;;;4.93;;
71637;SDS011;59485;43.542;-5.676;2022-12-07T15:31:00;15.93;;;5.00;;
71637;SDS011;59485;43.542;-5.676;2022-12-07T15:33:25;15.33;;;5.70;;
71637;SDS011;59485;43.542;-5.676;2022-12-07T15:35:51;14.43;;;4.43;;
71637;SDS011;59485;43.542;-5.676;2022-12-07T15:38:16;14.18;;;4.40;;
71637;SDS011;59485;43.542;-5.676;2022-12-07T15:40:42;13.60;;;3.93;;
71637;SDS011;59485;43.542;-5.676;2022-12-07T15:43:11;13.20;;;4.35;;
71637;SDS011;59485;43.542;-5.676;2022-12-07T15:45:55;11.93;;;4.47;;
71637;SDS011;59485;43.542;-5.676;2022-12-07T15:48:20;14.87;;;3.50;;
71637;SDS011;59485;43.542;-5.676;2022-12-07T15:50:46;16.87;;;4.50;;
71637;SDS011;59485;43.542;-5.676;2022-12-07T15:53:11;17.80;;;4.57;;
71637;SDS011;59485;43.542;-5.676;2022-12-07T15:55:43;19.67;;;4.77;;
71637;SDS011;59485;43.542;-5.676;2022-12-07T15:58:11;16.23;;;4.57;;
71637;SDS011;59485;43.542;-5.676;2022-12-07T16:00:37;16.27;;;4.30;;
71637;SDS011;59485;43.542;-5.676;2022-12-07T16:03:03;13.37;;;3.93;;
71637;SDS011;59485;43.542;-5.676;2022-12-07T16:05:28;17.27;;;4.43;;
71637;SDS011;59485;43.542;-5.676;2022-12-07T16:07:54;12.70;;;3.60;;
71637;SDS011;59485;43.542;-5.676;2022-12-07T16:10:19;17.63;;;4.80;;
71637;SDS011;59485;43.542;-5.676;2022-12-07T16:12:45;12.20;;;4.53;;
71637;SDS011;59485;43.542;-5.676;2022-12-07T16:15:10;15.97;;;4.00;;
71637;SDS011;59485;43.542;-5.676;2022-12-07T16:17:36;13.00;;;3.37;;
71637;SDS011;59485;43.542;-5.676;2022-12-07T16:20:01;11.23;;;3.83;;
71637;SDS011;59485;43.542;-5.676;2022-12-07T16:22:28;12.13;;;3.50;;
71637;SDS011;59485;43.542;-5.676;2022-12-07T16:24:54;14.57;;;3.72;;
71637;SDS011;59485;43.542;-5.676;2022-12-07T16:27:20;8.50;;;3.40;;
71637;SDS011;59485;43.542;-5.676;2022-12-07T16:29:45;10.02;;;3.63;;
71637;SDS011;59485;43.542;-5.676;2022-12-07T16:32:11;10.53;;;3.60;;
71637;SDS011;59485;43.542;-5.676;2022-12-07T16:34:36;13.70;;;3.53;;
71637;SDS011;59485;43.542;-5.676;2022-12-07T16:37:02;16.23;;;4.72;;
71637;SDS011;59485;43.542;-5.676;2022-12-07T16:39:27;14.53;;;3.43;;
71637;SDS011;59485;43.542;-5.676;2022-12-07T16:41:53;12.37;;;3.53;;
71637;SDS011;59485;43.542;-5.676;2022-12-07T16:44:18;12.98;;;3.63;;
71637;SDS011;59485;43.542;-5.676;2022-12-07T16:46:44;15.47;;;4.10;;
71637;SDS011;59485;43.542;-5.676;2022-12-07T16:49:13;12.47;;;4.13;;
71637;SDS011;59485;43.542;-5.676;2022-12-07T16:51:40;15.27;;;4.50;;
71637;SDS011;59485;43.542;-5.676;2022-12-07T16:54:09;13.05;;;4.50;;
71637;SDS011;59485;43.542;-5.676;2022-12-07T16:56:36;15.52;;;5.07;;
71637;SDS011;59485;43.542;-5.676;2022-12-07T16:59:02;13.27;;;3.97;;